createdAt,value
2022-10-24T05:03:01.712Z,16.80
2022-10-24T05:08:05.687Z,16.90
2022-10-24T05:13:09.314Z,16.90
2022-10-24T05:18:14.323Z,16.90
2022-10-24T05:23:17.922Z,16.90
2022-10-24T05:28:21.522Z,16.90
2022-10-24T05:33:26.524Z,16.90
2022-10-24T05:38:30.296Z,17.00
2022-10-24T05:43:33.857Z,17.00
2022-10-24T05:48:38.811Z,17.00
2022-10-24T05:53:42.431Z,16.90
2022-10-24T05:58:46.004Z,16.90
2022-10-24T06:03:50.969Z,16.90
2022-10-24T06:08:54.597Z,16.90
2022-10-24T06:13:58.217Z,16.80
2022-10-24T06:19:03.148Z,16.90
2022-10-24T06:24:07.061Z,16.90
2022-10-24T06:29:10.688Z,16.80
2022-10-24T06:34:15.961Z,16.80
2022-10-24T06:39:19.732Z,16.80
2022-10-24T06:44:23.347Z,16.80
2022-10-24T06:49:28.410Z,16.80
2022-10-24T06:54:33.672Z,16.80
2022-10-24T06:59:37.403Z,16.80
2022-10-24T07:04:42.694Z,16.80
2022-10-24T07:09:46.973Z,16.80
2022-10-24T07:14:50.803Z,16.80
2022-10-24T07:19:56.501Z,16.80
2022-10-24T07:25:00.117Z,16.90
2022-10-24T07:30:05.713Z,16.90
2022-10-24T07:35:12.868Z,16.90
2022-10-24T07:40:16.738Z,16.90
2022-10-24T07:45:20.457Z,17.00
2022-10-24T07:50:25.374Z,17.00
2022-10-24T07:55:28.973Z,17.10
2022-10-24T08:00:32.607Z,17.10
2022-10-24T08:05:40.518Z,17.20
2022-10-24T08:10:44.106Z,17.30
2022-10-24T08:15:47.714Z,17.40
2022-10-24T08:21:00.627Z,17.40
2022-10-24T08:26:06.051Z,17.50
2022-10-24T08:31:12.549Z,17.60
2022-10-24T08:36:22.465Z,17.70
2022-10-24T08:41:30.882Z,17.90
2022-10-24T08:46:48.985Z,18.20
2022-10-24T08:51:57.742Z,18.30
2022-10-24T08:57:02.198Z,18.30
2022-10-24T09:02:14.790Z,18.40
2022-10-24T09:07:22.073Z,18.70
2022-10-24T09:12:26.366Z,19.00
2022-10-24T09:17:33.257Z,19.10
2022-10-24T09:22:39.544Z,19.10
2022-10-24T09:27:46.271Z,19.10
2022-10-24T09:32:50.277Z,19.20
2022-10-24T09:37:56.725Z,19.10
2022-10-24T09:43:04.867Z,19.00
2022-10-24T09:48:19.840Z,18.80
2022-10-24T09:53:27.989Z,18.60
2022-10-24T09:58:33.966Z,18.40
2022-10-24T10:03:37.576Z,18.20
2022-10-24T10:08:42.784Z,18.00
2022-10-24T10:13:50.126Z,18.10
2022-10-24T10:19:02.608Z,18.20
2022-10-24T10:24:25.991Z,18.20
2022-10-24T10:29:29.977Z,18.40
2022-10-24T10:34:39.554Z,18.60
2022-10-24T10:40:04.124Z,18.70
2022-10-24T10:45:20.623Z,18.70
2022-10-24T10:50:31.505Z,18.50
2022-10-24T10:55:45.638Z,18.20
2022-10-24T11:00:58.475Z,18.10
2022-10-24T11:06:26.623Z,18.10
2022-10-24T11:11:35.026Z,18.20
2022-10-24T11:16:40.963Z,18.20
2022-10-24T11:21:46.077Z,18.10
2022-10-24T11:26:57.971Z,18.20
2022-10-24T11:32:06.449Z,18.20
2022-10-24T11:37:17.587Z,18.10
2022-10-24T11:42:28.525Z,18.00
2022-10-24T11:48:02.609Z,18.10
2022-10-24T11:53:18.466Z,18.70
2022-10-24T11:58:26.143Z,19.60
2022-10-24T12:03:48.409Z,20.40
2022-10-24T12:09:18.914Z,20.90
2022-10-24T12:14:52.733Z,21.20
2022-10-24T12:19:57.132Z,21.10
2022-10-24T12:25:05.153Z,20.80
2022-10-24T12:30:21.821Z,20.40
2022-10-24T12:35:54.550Z,20.30
2022-10-24T12:41:05.832Z,20.70
2022-10-24T12:46:58.790Z,21.00
2022-10-24T12:52:42.712Z,20.80
2022-10-24T12:57:47.595Z,20.50
2022-10-24T13:03:07.603Z,20.30
2022-10-24T13:08:26.266Z,20.00
2022-10-24T13:13:59.462Z,20.10
2022-10-24T13:19:13.477Z,20.00
2022-10-24T13:24:31.204Z,19.80
2022-10-24T13:30:01.388Z,19.50
2022-10-24T13:35:06.978Z,19.60
2022-10-24T13:40:17.157Z,20.10
2022-10-24T13:45:28.697Z,20.30
2022-10-24T13:50:35.856Z,20.50
2022-10-24T13:55:46.519Z,20.90
2022-10-24T14:00:55.699Z,21.30
2022-10-24T14:06:01.654Z,21.10
2022-10-24T14:11:13.407Z,20.60
2022-10-24T14:16:17.300Z,20.30
2022-10-24T14:21:22.792Z,20.60
2022-10-24T14:26:27.977Z,20.90
2022-10-24T14:31:34.869Z,21.10
2022-10-24T14:36:40.764Z,20.90
2022-10-24T14:41:45.849Z,20.60
2022-10-24T14:47:03.204Z,20.30
2022-10-24T14:52:12.122Z,20.10
2022-10-24T14:57:21.051Z,20.20
2022-10-24T15:02:27.864Z,20.10
2022-10-24T15:07:37.386Z,20.10
2022-10-24T15:12:48.277Z,20.10
2022-10-24T15:17:52.664Z,20.20
2022-10-24T15:22:58.507Z,20.10
2022-10-24T15:28:05.421Z,19.90
2022-10-24T15:33:10.698Z,19.70
2022-10-24T15:38:17.019Z,19.50
2022-10-24T15:43:21.976Z,19.40
2022-10-24T15:48:25.799Z,19.10
2022-10-24T15:53:29.400Z,18.90
2022-10-24T15:58:34.381Z,18.80
2022-10-24T16:03:38.059Z,18.70
2022-10-24T16:08:41.604Z,18.50
2022-10-24T16:13:46.700Z,18.20
2022-10-24T16:18:50.908Z,18.10
2022-10-24T16:23:55.010Z,17.90
2022-10-24T16:28:59.991Z,17.80
2022-10-24T16:34:03.871Z,17.80
2022-10-24T16:39:07.605Z,17.70
2022-10-24T16:44:12.786Z,17.70
2022-10-24T16:49:16.344Z,17.70
2022-10-24T16:54:21.857Z,17.60
2022-10-24T16:59:28.714Z,17.50
2022-10-24T17:04:33.837Z,17.50
2022-10-24T17:09:37.651Z,17.50
2022-10-24T17:14:42.611Z,17.50
2022-10-24T17:19:48.339Z,17.50
2022-10-24T17:24:52.086Z,17.40
2022-10-24T17:29:57.337Z,17.40
2022-10-24T17:35:01.602Z,17.40
2022-10-24T17:40:13.045Z,17.40
2022-10-24T17:45:20.162Z,17.40
2022-10-24T17:50:23.785Z,17.40
2022-10-24T17:55:47.422Z,17.40
2022-10-24T18:00:53.095Z,17.40
2022-10-24T18:05:59.667Z,17.30
2022-10-24T18:11:04.466Z,17.20
2022-10-24T18:16:11.627Z,17.10
2022-10-24T18:26:27.528Z,17.10
2022-10-24T18:31:34.077Z,17.10
2022-10-24T18:36:37.816Z,17.00
2022-10-24T18:41:48.299Z,17.00
2022-10-24T18:46:55.275Z,17.00
2022-10-24T18:52:14.782Z,16.90
2022-10-24T18:57:23.817Z,16.90
2022-10-24T19:02:39.212Z,15.80
2022-10-24T19:07:43.418Z,16.80
2022-10-24T19:12:47.798Z,16.80
2022-10-24T19:17:53.019Z,16.80
2022-10-24T19:22:57.863Z,16.70
2022-10-24T19:28:01.536Z,16.70
2022-10-24T19:33:06.543Z,16.60
2022-10-24T19:38:10.375Z,16.60
2022-10-24T19:43:14.177Z,16.50
2022-10-24T19:48:19.383Z,16.50
2022-10-24T19:53:23.112Z,16.50
2022-10-24T19:58:26.750Z,16.50
2022-10-24T20:03:32.236Z,16.50
2022-10-24T20:08:36.280Z,16.50
2022-10-24T20:13:39.863Z,16.50
2022-10-24T20:18:44.873Z,16.50
2022-10-24T20:23:49.838Z,16.50
2022-10-24T20:28:55.573Z,16.50
2022-10-24T20:34:06.777Z,16.50
2022-10-24T20:39:13.615Z,16.40
2022-10-24T20:44:17.695Z,16.40
2022-10-24T20:49:22.693Z,16.30
2022-10-24T21:07:25.746Z,16.40
2022-10-24T21:18:57.930Z,16.30
2022-10-24T21:24:06.507Z,16.20
2022-10-24T21:34:35.931Z,16.30
2022-10-24T21:39:39.562Z,16.20
2022-10-24T21:44:43.113Z,16.20
2022-10-24T21:49:48.049Z,16.20
2022-10-24T21:54:51.636Z,16.10
2022-10-24T21:59:55.232Z,16.10
2022-10-24T22:05:00.159Z,16.10
2022-10-24T22:10:03.816Z,16.00
2022-10-24T22:15:08.372Z,16.10
2022-10-24T22:20:13.254Z,16.10
2022-10-24T22:25:16.957Z,16.00
